createdAt,value
2018-08-13T00:01:38.677Z,39.68
2018-08-13T00:04:06.381Z,40.91
2018-08-13T00:06:34.097Z,40.64
2018-08-13T00:09:01.765Z,40.03
2018-08-13T00:11:29.477Z,39.85
2018-08-13T00:13:57.181Z,40.65
2018-08-13T00:16:24.873Z,40.46
2018-08-13T00:18:52.550Z,39.63
2018-08-13T00:21:20.246Z,41.94
2018-08-13T00:23:47.917Z,40.62
2018-08-13T00:26:15.608Z,40.30
2018-08-13T00:28:43.277Z,40.83
2018-08-13T00:31:11.003Z,39.91
2018-08-13T00:33:38.677Z,40.92
2018-08-13T00:36:06.497Z,40.79
2018-08-13T00:38:34.154Z,41.00
2018-08-13T00:41:01.853Z,40.79
2018-08-13T00:43:29.529Z,40.61
2018-08-13T00:45:57.245Z,40.67
2018-08-13T00:48:24.950Z,40.69
2018-08-13T00:50:56.089Z,40.87
2018-08-13T00:53:23.809Z,41.53
2018-08-13T00:55:51.498Z,41.60
2018-08-13T00:58:19.177Z,41.07
2018-08-13T01:00:46.837Z,40.96
2018-08-13T01:03:14.546Z,40.67
2018-08-13T01:05:42.254Z,41.30
2018-08-13T01:08:09.953Z,41.86
2018-08-13T01:10:37.660Z,41.32
2018-08-13T01:13:06.369Z,41.24
2018-08-13T01:15:34.077Z,41.84
2018-08-13T01:18:08.480Z,41.82
2018-08-13T01:20:36.161Z,41.83
2018-08-13T01:23:03.871Z,41.26
2018-08-13T01:25:31.577Z,41.21
2018-08-13T01:27:59.357Z,41.87
2018-08-13T01:30:27.094Z,41.33
2018-08-13T01:32:54.741Z,41.47
2018-08-13T01:35:22.404Z,42.13
2018-08-13T01:37:50.060Z,42.53
2018-08-13T01:40:17.729Z,42.21
2018-08-13T01:42:45.394Z,41.92
2018-08-13T01:45:13.364Z,42.70
2018-08-13T01:47:41.721Z,41.86
2018-08-13T01:50:11.104Z,41.92
2018-08-13T01:52:38.936Z,42.49
2018-08-13T01:55:08.305Z,42.56
2018-08-13T01:57:36.013Z,42.06
2018-08-13T02:00:08.631Z,43.26
2018-08-13T02:02:36.317Z,42.72
2018-08-13T02:05:05.012Z,42.99
2018-08-13T02:07:36.225Z,42.68
2018-08-13T02:10:05.409Z,42.26
2018-08-13T02:12:33.421Z,42.44
2018-08-13T02:15:01.109Z,41.76
2018-08-13T02:17:28.788Z,41.94
2018-08-13T02:19:56.473Z,42.02
2018-08-13T02:22:24.151Z,43.05
2018-08-13T02:24:52.023Z,43.18
2018-08-13T02:27:19.677Z,43.22
2018-08-13T02:29:47.333Z,42.85
2018-08-13T02:32:15.013Z,44.90
2018-08-13T02:34:42.670Z,44.92
2018-08-13T02:37:10.373Z,44.22
2018-08-13T02:39:38.098Z,44.22
2018-08-13T02:42:05.774Z,45.27
2018-08-13T02:44:33.683Z,44.36
2018-08-13T02:47:01.673Z,44.34
2018-08-13T02:49:29.455Z,44.44
2018-08-13T02:51:57.203Z,44.60
2018-08-13T02:54:25.236Z,44.71
2018-08-13T02:56:53.002Z,44.29
2018-08-13T02:59:20.720Z,44.40
2018-08-13T03:01:48.486Z,45.48
2018-08-13T03:04:16.318Z,44.29
2018-08-13T03:06:44.093Z,43.67
2018-08-13T03:09:12.565Z,45.02
2018-08-13T03:11:40.311Z,44.00
2018-08-13T03:14:08.093Z,45.85
2018-08-13T03:16:35.824Z,45.89
2018-08-13T03:19:04.357Z,44.41
2018-08-13T03:21:32.090Z,44.95
2018-08-13T03:23:59.943Z,43.79
2018-08-13T03:26:27.775Z,44.42
2018-08-13T03:28:55.508Z,44.05
2018-08-13T03:31:23.285Z,44.41
2018-08-13T03:33:50.958Z,42.74
2018-08-13T03:36:18.646Z,43.09
2018-08-13T03:38:46.386Z,44.04
2018-08-13T03:41:14.116Z,44.72
2018-08-13T03:43:41.894Z,43.48
2018-08-13T03:46:09.625Z,43.88
2018-08-13T03:48:37.337Z,44.07
2018-08-13T03:51:05.248Z,45.30
2018-08-13T03:53:33.042Z,43.80
2018-08-13T03:56:01.155Z,44.51
2018-08-13T03:58:28.961Z,42.45
2018-08-13T04:00:56.743Z,42.19
2018-08-13T04:03:24.479Z,42.82
2018-08-13T04:05:52.264Z,42.87
2018-08-13T04:08:20.154Z,43.80
2018-08-13T04:10:47.887Z,44.08
2018-08-13T04:13:15.642Z,44.48
2018-08-13T04:15:43.791Z,43.60
2018-08-13T04:18:11.521Z,43.51
2018-08-13T04:20:41.524Z,44.31
2018-08-13T04:23:09.440Z,44.38
2018-08-13T04:25:37.130Z,43.54
2018-08-13T04:28:05.704Z,44.16
2018-08-13T04:30:34.102Z,43.53
2018-08-13T04:33:01.831Z,43.73
2018-08-13T04:35:29.645Z,43.75
2018-08-13T04:37:57.366Z,44.34
2018-08-13T04:40:25.198Z,44.81
2018-08-13T04:42:52.986Z,44.72
2018-08-13T04:45:20.717Z,44.81
2018-08-13T04:47:51.441Z,44.29
2018-08-13T04:50:19.314Z,45.23
2018-08-13T04:52:47.511Z,45.24
2018-08-13T04:55:15.451Z,44.55
2018-08-13T04:57:43.290Z,44.37
2018-08-13T05:00:11.110Z,44.83
2018-08-13T05:02:39.494Z,44.03
2018-08-13T05:05:08.554Z,44.67
2018-08-13T05:07:36.530Z,44.52
2018-08-13T05:10:05.586Z,44.43
2018-08-13T05:12:33.348Z,44.74
2018-08-13T05:15:01.115Z,44.45
2018-08-13T05:17:28.834Z,44.66
2018-08-13T05:19:56.642Z,45.64
2018-08-13T05:22:24.450Z,47.47
2018-08-13T05:24:52.246Z,45.71
2018-08-13T05:27:20.040Z,46.69
2018-08-13T05:29:47.801Z,46.54
2018-08-13T05:32:15.499Z,46.68
2018-08-13T05:34:43.314Z,46.23
2018-08-13T05:37:11.101Z,47.13
2018-08-13T05:39:38.836Z,46.47
2018-08-13T05:42:06.570Z,47.24
2018-08-13T05:44:34.643Z,47.23
2018-08-13T05:47:02.495Z,47.29
2018-08-13T05:49:30.227Z,48.18
2018-08-13T05:51:57.981Z,48.14
2018-08-13T05:54:26.516Z,49.12
2018-08-13T05:56:54.201Z,47.97
2018-08-13T05:59:21.939Z,48.17
2018-08-13T06:01:49.624Z,47.41
2018-08-13T06:04:17.386Z,47.49
2018-08-13T06:06:45.438Z,48.38
2018-08-13T06:09:13.176Z,48.42
2018-08-13T06:11:41.022Z,48.90
2018-08-13T06:14:08.718Z,48.95
2018-08-13T06:16:36.945Z,48.94
2018-08-13T06:19:05.389Z,48.49
2018-08-13T06:21:33.103Z,49.29
2018-08-13T06:24:00.900Z,49.63
2018-08-13T06:26:28.619Z,49.92
2018-08-13T06:28:56.308Z,51.21
2018-08-13T06:31:24.051Z,51.51
2018-08-13T06:33:51.859Z,54.16
2018-08-13T06:36:19.605Z,53.36
2018-08-13T06:38:47.382Z,54.27
2018-08-13T06:41:19.032Z,54.85
2018-08-13T06:43:47.135Z,55.61
2018-08-13T06:46:14.822Z,55.20
2018-08-13T06:48:42.508Z,57.06
2018-08-13T06:51:10.245Z,58.73
2018-08-13T06:53:39.081Z,59.42
2018-08-13T06:56:07.258Z,59.97
2018-08-13T06:58:35.017Z,60.89
2018-08-13T07:01:03.006Z,60.61
2018-08-13T07:03:30.997Z,61.18
2018-08-13T07:05:58.724Z,60.76
2018-08-13T07:08:26.474Z,61.83
2018-08-13T07:10:54.191Z,60.56
2018-08-13T07:13:21.942Z,60.12
2018-08-13T07:15:49.673Z,60.50
2018-08-13T07:18:17.414Z,61.40
2018-08-13T07:20:45.159Z,60.24
2018-08-13T07:23:12.907Z,60.51
2018-08-13T07:25:40.700Z,61.80
2018-08-13T07:28:08.409Z,61.91
2018-08-13T07:30:36.374Z,62.17
2018-08-13T07:33:04.214Z,61.71
2018-08-13T07:35:31.980Z,59.39
2018-08-13T07:37:59.793Z,59.98
2018-08-13T07:40:27.592Z,61.07
2018-08-13T07:42:55.347Z,61.48
2018-08-13T07:45:23.035Z,61.51
2018-08-13T07:47:50.790Z,62.36
2018-08-13T07:50:18.520Z,62.54
2018-08-13T07:52:46.217Z,60.95
2018-08-13T07:55:13.998Z,62.54
2018-08-13T07:57:41.738Z,61.84
2018-08-13T08:00:12.995Z,62.08
2018-08-13T08:02:40.690Z,62.87
2018-08-13T08:07:35.992Z,64.77
2018-08-13T08:10:07.076Z,65.09
2018-08-13T08:12:34.881Z,63.08
2018-08-13T08:15:02.950Z,62.81
2018-08-13T08:17:30.661Z,64.16
2018-08-13T08:19:58.378Z,64.93
2018-08-13T08:22:29.911Z,64.21
2018-08-13T08:24:57.659Z,64.18
2018-08-13T08:27:25.737Z,64.51
2018-08-13T08:29:53.570Z,65.44
2018-08-13T08:32:21.324Z,64.83
2018-08-13T08:34:49.117Z,65.26
2018-08-13T08:37:16.865Z,64.87
2018-08-13T08:39:44.566Z,65.51
2018-08-13T08:42:12.305Z,65.50
2018-08-13T08:44:39.985Z,65.10
2018-08-13T08:47:07.660Z,65.62
2018-08-13T08:49:35.345Z,66.36
2018-08-13T08:52:03.022Z,65.46
2018-08-13T08:54:30.692Z,66.33
2018-08-13T08:56:58.349Z,66.31
2018-08-13T08:59:26.042Z,65.61
2018-08-13T09:01:53.716Z,66.39
2018-08-13T09:04:21.383Z,65.84
2018-08-13T09:06:49.065Z,65.31
2018-08-13T09:09:16.717Z,66.49
2018-08-13T09:11:44.393Z,64.78
2018-08-13T09:14:12.299Z,65.25
2018-08-13T09:16:43.993Z,64.79
2018-08-13T09:19:29.051Z,64.38
2018-08-13T09:23:16.802Z,64.61
2018-08-13T09:28:40.685Z,65.74
2018-08-13T09:31:31.220Z,65.18
2018-08-13T09:34:18.662Z,65.76
2018-08-13T09:36:46.433Z,65.75
2018-08-13T09:39:14.034Z,65.81
2018-08-13T09:41:41.728Z,65.79
2018-08-13T09:44:09.397Z,66.08
2018-08-13T09:46:37.642Z,64.71
2018-08-13T09:49:05.799Z,66.46
2018-08-13T09:51:34.199Z,65.77
2018-08-13T09:54:02.065Z,65.84
2018-08-13T09:56:29.820Z,65.68
2018-08-13T09:58:58.445Z,65.50
2018-08-13T10:01:26.125Z,65.88
2018-08-13T10:03:53.795Z,65.05
2018-08-13T10:06:21.497Z,61.20
2018-08-13T10:08:49.173Z,63.04
2018-08-13T10:11:16.837Z,63.51
2018-08-13T10:13:44.474Z,64.77
2018-08-13T10:16:13.330Z,64.54
2018-08-13T10:18:40.994Z,64.22
2018-08-13T10:21:08.654Z,64.30
2018-08-13T10:23:36.349Z,64.35
2018-08-13T10:26:04.070Z,65.70
2018-08-13T10:28:31.749Z,64.92
2018-08-13T10:30:59.426Z,64.16
2018-08-13T10:33:27.101Z,64.08
2018-08-13T10:35:54.761Z,64.11
2018-08-13T10:38:22.449Z,63.97
2018-08-13T10:40:50.089Z,64.47
2018-08-13T10:43:17.846Z,64.34
2018-08-13T10:45:45.485Z,64.11
2018-08-13T10:48:13.197Z,64.72
2018-08-13T10:50:40.890Z,64.24
2018-08-13T10:53:08.574Z,64.53
2018-08-13T10:55:36.313Z,64.09
2018-08-13T10:58:04.176Z,64.27
2018-08-13T11:00:31.829Z,64.35
2018-08-13T11:02:59.625Z,63.75
2018-08-13T11:05:27.266Z,63.88
2018-08-13T11:07:55.015Z,63.53
2018-08-13T11:10:22.788Z,62.90
2018-08-13T11:12:51.448Z,63.23
2018-08-13T11:15:19.594Z,63.55
2018-08-13T11:17:47.266Z,62.57
2018-08-13T11:20:15.485Z,62.13
2018-08-13T11:22:43.309Z,63.59
2018-08-13T11:25:13.196Z,63.09
2018-08-13T11:27:40.948Z,62.39
2018-08-13T11:30:12.232Z,61.25
2018-08-13T11:32:40.106Z,61.70
2018-08-13T11:35:07.867Z,61.07
2018-08-13T11:37:35.875Z,61.34
2018-08-13T11:40:08.277Z,61.16
2018-08-13T11:42:36.077Z,60.65
2018-08-13T11:45:03.776Z,60.55
2018-08-13T11:47:31.428Z,61.14
2018-08-13T11:49:59.165Z,60.64
2018-08-13T11:52:30.074Z,60.13
2018-08-13T11:54:57.685Z,60.84
2018-08-13T11:57:25.352Z,60.92
2018-08-13T11:59:53.026Z,60.91
2018-08-13T12:02:20.726Z,60.36
2018-08-13T12:04:48.376Z,60.33
2018-08-13T12:07:16.016Z,60.22
2018-08-13T12:09:43.659Z,59.61
2018-08-13T12:12:11.633Z,59.41
2018-08-13T12:14:39.515Z,59.41
2018-08-13T12:17:07.234Z,59.52
2018-08-13T12:19:35.056Z,59.68
2018-08-13T12:22:02.676Z,59.62
2018-08-13T12:24:30.346Z,59.03
2018-08-13T12:26:58.005Z,58.63
2018-08-13T12:29:25.660Z,58.76
2018-08-13T12:31:53.294Z,58.95
2018-08-13T12:34:21.087Z,59.39
2018-08-13T12:36:52.576Z,64.23
2018-08-13T12:39:20.254Z,70.92
2018-08-13T12:41:47.913Z,72.45
2018-08-13T12:44:15.573Z,71.42
2018-08-13T12:46:43.224Z,70.15
2018-08-13T12:49:10.874Z,69.16
2018-08-13T12:51:38.592Z,69.62
2018-08-13T12:54:06.425Z,68.80
2018-08-13T12:56:34.080Z,69.06
2018-08-13T12:59:01.901Z,68.98
2018-08-13T13:01:29.641Z,69.52
2018-08-13T13:03:57.358Z,68.76
2018-08-13T13:06:25.025Z,69.71
2018-08-13T13:08:52.740Z,69.85
2018-08-13T13:11:20.488Z,68.55
2018-08-13T13:13:48.176Z,67.74
2018-08-13T13:16:15.939Z,68.29
2018-08-13T13:18:43.605Z,68.51
2018-08-13T13:21:11.368Z,68.42
2018-08-13T13:23:39.054Z,68.72
2018-08-13T13:26:06.913Z,67.82
2018-08-13T13:28:38.605Z,66.19
2018-08-13T13:31:06.252Z,66.16
2018-08-13T13:33:34.043Z,66.83
2018-08-13T13:36:01.722Z,69.17
2018-08-13T13:38:29.400Z,67.89
2018-08-13T13:40:57.185Z,67.18
2018-08-13T13:43:24.864Z,67.24
2018-08-13T13:45:53.528Z,68.11
2018-08-13T13:48:21.712Z,69.09
2018-08-13T13:50:49.370Z,67.78
2018-08-13T13:53:17.133Z,67.36
2018-08-13T13:55:44.946Z,67.13
2018-08-13T13:58:12.709Z,67.06
2018-08-13T14:00:57.954Z,66.07
2018-08-13T14:03:25.694Z,65.77
2018-08-13T14:05:59.538Z,65.51
2018-08-13T14:08:27.274Z,66.66
2018-08-13T14:10:54.938Z,66.57
2018-08-13T14:13:22.697Z,67.40
2018-08-13T14:15:50.487Z,67.50
2018-08-13T14:18:18.250Z,66.63
2018-08-13T14:20:45.914Z,67.25
2018-08-13T14:23:13.694Z,68.11
2018-08-13T14:25:41.353Z,69.02
2018-08-13T14:28:09.079Z,69.01
2018-08-13T14:30:36.776Z,68.97
2018-08-13T14:33:05.165Z,68.13
2018-08-13T14:35:32.893Z,68.11
2018-08-13T14:38:00.746Z,68.67
2018-08-13T14:40:28.467Z,68.09
2018-08-13T14:42:56.130Z,68.95
2018-08-13T14:45:23.910Z,68.60
2018-08-13T14:47:52.002Z,68.31
2018-08-13T14:50:19.705Z,68.79
2018-08-13T14:52:51.204Z,68.20
2018-08-13T14:55:20.697Z,67.90
2018-08-13T14:57:48.345Z,68.14
2018-08-13T15:00:25.598Z,68.52
2018-08-13T15:02:54.284Z,67.24
2018-08-13T15:05:21.960Z,67.89
2018-08-13T15:07:49.796Z,67.61
2018-08-13T15:10:19.993Z,67.42
2018-08-13T15:12:47.720Z,67.01
2018-08-13T15:15:15.309Z,67.01
2018-08-13T15:17:42.965Z,66.39
2018-08-13T15:20:24.693Z,67.44
2018-08-13T15:22:52.645Z,66.01
2018-08-13T15:25:20.485Z,65.91
2018-08-13T15:27:48.279Z,66.74
2018-08-13T15:30:17.017Z,64.99
2018-08-13T15:32:45.756Z,65.83
2018-08-13T15:35:13.518Z,65.18
2018-08-13T15:37:41.547Z,65.41
2018-08-13T15:40:09.681Z,65.29
2018-08-13T15:42:37.664Z,66.08
2018-08-13T15:45:08.868Z,66.23
2018-08-13T15:47:36.654Z,64.71
2018-08-13T15:50:04.854Z,64.23
2018-08-13T15:52:32.662Z,65.06
2018-08-13T15:55:04.007Z,65.19
2018-08-13T15:57:31.670Z,63.48
2018-08-13T15:59:59.444Z,63.96
2018-08-13T16:02:27.174Z,64.79
2018-08-13T16:04:55.092Z,64.92
2018-08-13T16:07:22.786Z,65.17
2018-08-13T16:09:50.725Z,64.85
2018-08-13T16:12:18.436Z,64.97
2018-08-13T16:14:46.206Z,64.48
2018-08-13T16:17:14.085Z,64.52
2018-08-13T16:19:41.755Z,64.73
2018-08-13T16:22:09.393Z,64.44
2018-08-13T16:24:37.158Z,63.30
2018-08-13T16:27:04.837Z,64.40
2018-08-13T16:29:32.516Z,63.75
2018-08-13T16:32:00.392Z,63.73
2018-08-13T16:34:28.077Z,64.32
2018-08-13T16:36:55.857Z,63.88
2018-08-13T16:39:23.665Z,63.86
2018-08-13T16:41:51.356Z,63.21
2018-08-13T16:44:19.411Z,64.11
2018-08-13T16:46:47.162Z,63.86
2018-08-13T16:49:15.425Z,63.73
2018-08-13T16:51:43.090Z,63.41
2018-08-13T16:54:10.790Z,63.38
2018-08-13T16:56:38.594Z,63.23
2018-08-13T16:59:06.250Z,62.94
2018-08-13T17:01:33.893Z,63.46
2018-08-13T17:04:01.876Z,63.62
2018-08-13T17:06:29.615Z,63.60
2018-08-13T17:08:57.683Z,63.82
2018-08-13T17:11:30.006Z,64.50
2018-08-13T17:13:57.814Z,63.43
2018-08-13T17:16:25.458Z,63.13
2018-08-13T17:18:53.170Z,63.47
2018-08-13T17:21:20.861Z,63.21
2018-08-13T17:23:48.901Z,63.13
2018-08-13T17:26:20.635Z,62.58
2018-08-13T17:31:55.273Z,62.66
2018-08-13T17:34:23.267Z,62.10
2018-08-13T17:36:51.178Z,62.87
2018-08-13T17:39:18.937Z,61.65
2018-08-13T17:41:46.750Z,61.45
2018-08-13T17:44:14.538Z,61.82
2018-08-13T17:46:42.727Z,61.14
2018-08-13T17:49:10.542Z,61.89
2018-08-13T17:51:38.382Z,61.00
2018-08-13T17:54:06.538Z,61.09
2018-08-13T17:56:34.331Z,61.70
2018-08-13T17:59:02.493Z,61.57
2018-08-13T18:01:30.325Z,61.07
2018-08-13T18:03:58.070Z,61.79
2018-08-13T18:06:25.886Z,60.41
2018-08-13T18:08:53.666Z,61.14
2018-08-13T18:11:21.403Z,61.79
2018-08-13T18:13:49.122Z,61.54
2018-08-13T18:16:17.022Z,60.52
2018-08-13T18:18:44.755Z,61.35
2018-08-13T18:21:12.530Z,60.56
2018-08-13T18:23:40.367Z,60.48
2018-08-13T18:26:08.502Z,61.13
2018-08-13T18:28:39.712Z,60.76
2018-08-13T18:31:08.145Z,60.52
2018-08-13T18:33:36.194Z,60.57
2018-08-13T18:36:04.110Z,60.59
2018-08-13T18:38:31.934Z,61.11
2018-08-13T18:40:59.894Z,61.55
2018-08-13T18:43:27.802Z,60.85
2018-08-13T18:45:55.530Z,61.28
2018-08-13T18:48:23.330Z,61.00
2018-08-13T18:50:51.098Z,61.22
2018-08-13T18:53:18.899Z,62.30
2018-08-13T18:55:46.638Z,62.02
2018-08-13T18:58:14.442Z,61.48
2018-08-13T19:00:44.728Z,62.19
2018-08-13T19:03:12.527Z,61.25
2018-08-13T19:05:40.223Z,60.96
2018-08-13T19:08:08.050Z,61.50
2018-08-13T19:10:35.819Z,61.18
2018-08-13T19:13:03.610Z,60.46
2018-08-13T19:15:31.302Z,61.26
2018-08-13T19:17:59.186Z,60.57
2018-08-13T19:20:33.126Z,60.71
2018-08-13T19:23:02.311Z,61.17
2018-08-13T19:25:30.455Z,61.77
2018-08-13T19:27:58.354Z,61.70
2018-08-13T19:30:26.414Z,61.54
2018-08-13T19:32:54.641Z,61.27
2018-08-13T19:35:22.351Z,61.47
2018-08-13T19:37:51.160Z,61.77
2018-08-13T19:40:22.619Z,63.39
2018-08-13T19:42:51.391Z,64.00
2018-08-13T19:45:19.883Z,63.56
2018-08-13T19:47:48.667Z,63.39
2018-08-13T19:50:16.646Z,64.56
2018-08-13T19:52:46.779Z,64.58
2018-08-13T19:55:14.856Z,63.97
2018-08-13T19:57:42.782Z,64.01
2018-08-13T20:00:17.393Z,64.34
2018-08-13T20:02:46.908Z,65.21
2018-08-13T20:05:14.746Z,65.06
2018-08-13T20:07:42.930Z,65.39
2018-08-13T20:10:12.447Z,64.48
2018-08-13T20:12:40.750Z,64.80
2018-08-13T20:15:08.998Z,64.87
2018-08-13T20:17:36.894Z,64.03
2018-08-13T20:20:09.256Z,63.89
2018-08-13T20:22:37.090Z,64.68
2018-08-13T20:25:05.691Z,64.73
2018-08-13T20:27:33.683Z,64.03
2018-08-13T20:30:01.627Z,64.49
2018-08-13T20:32:29.414Z,63.59
2018-08-13T20:34:57.364Z,62.76
2018-08-13T20:37:26.402Z,63.58
2018-08-13T20:39:54.196Z,63.28
2018-08-13T20:42:22.338Z,63.25
2018-08-13T20:44:51.442Z,63.08
2018-08-13T20:47:19.442Z,62.50
2018-08-13T20:49:47.378Z,62.70
2018-08-13T20:52:15.278Z,63.58
2018-08-13T20:54:45.024Z,62.65
2018-08-13T20:57:13.999Z,63.36
2018-08-13T20:59:43.227Z,61.90
2018-08-13T21:02:10.996Z,62.21
2018-08-13T21:04:39.771Z,62.92
2018-08-13T21:07:08.510Z,62.53
2018-08-13T21:09:43.137Z,62.14
2018-08-13T21:12:17.416Z,62.22
2018-08-13T21:14:54.168Z,61.00
2018-08-13T21:17:27.180Z,60.75
2018-08-13T21:20:00.471Z,60.86
2018-08-13T21:22:34.167Z,60.36
2018-08-13T21:25:13.720Z,60.41
2018-08-13T21:27:47.828Z,60.27
2018-08-13T21:30:33.599Z,60.14
2018-08-13T21:33:11.186Z,59.64
2018-08-13T21:35:57.933Z,60.04
2018-08-13T21:38:38.594Z,60.25
2018-08-13T21:41:32.676Z,60.67
2018-08-13T21:44:09.356Z,60.86
2018-08-13T21:46:43.780Z,60.62
2018-08-13T21:49:21.572Z,60.65
2018-08-13T21:51:58.558Z,59.84
2018-08-13T21:54:35.129Z,59.97
2018-08-13T21:57:09.750Z,60.20
2018-08-13T21:59:46.118Z,59.81
2018-08-13T22:02:30.270Z,60.52
2018-08-13T22:05:09.502Z,60.13
2018-08-13T22:07:45.258Z,60.18
2018-08-13T22:10:21.519Z,60.46
2018-08-13T22:12:58.057Z,60.79
2018-08-13T22:15:32.683Z,60.13
2018-08-13T22:18:15.193Z,60.94
2018-08-13T22:20:49.444Z,60.24
2018-08-13T22:23:22.758Z,60.31
2018-08-13T22:25:56.748Z,59.96
2018-08-13T22:28:30.556Z,59.92
2018-08-13T22:31:02.604Z,59.54
2018-08-13T22:33:41.650Z,60.22
2018-08-13T22:36:14.835Z,59.73
2018-08-13T22:38:47.011Z,59.37
2018-08-13T22:41:18.664Z,59.57
2018-08-13T22:43:53.805Z,60.14
2018-08-13T22:46:27.100Z,59.69
2018-08-13T22:49:11.249Z,60.45
2018-08-13T22:51:47.310Z,60.33
2018-08-13T22:54:22.139Z,60.32
2018-08-13T22:56:58.301Z,60.44
2018-08-13T22:59:45.523Z,60.64
2018-08-13T23:02:17.164Z,60.58
2018-08-13T23:04:51.498Z,59.94
2018-08-13T23:07:24.998Z,60.58
2018-08-13T23:09:57.678Z,60.43
2018-08-13T23:12:28.720Z,60.74
2018-08-13T23:15:03.659Z,60.28
2018-08-13T23:17:35.720Z,60.94
2018-08-13T23:20:13.623Z,61.13
2018-08-13T23:23:08.378Z,60.93
2018-08-13T23:25:39.795Z,60.78
2018-08-13T23:28:15.935Z,61.39
2018-08-13T23:30:51.404Z,61.69
2018-08-13T23:33:27.731Z,61.79
2018-08-13T23:35:59.796Z,62.08
2018-08-13T23:38:41.375Z,61.76
2018-08-13T23:41:14.313Z,61.46
2018-08-13T23:43:47.507Z,62.81
2018-08-13T23:46:21.662Z,61.84
2018-08-13T23:48:49.523Z,62.82
2018-08-13T23:51:17.258Z,61.80
2018-08-13T23:53:44.970Z,61.84
2018-08-13T23:56:12.801Z,61.59
2018-08-13T23:58:40.498Z,61.53
